sensor_id;sensor_type;location;lat;lon;timestamp;P1;durP1;ratioP1;P2;durP2;ratioP2
74922;SDS011;64715;44.760;37.678;2024-02-26T00:00:29;1.65;;;0.40;;
74922;SDS011;64715;44.760;37.678;2024-02-26T00:01:31;2.47;;;0.52;;
74922;SDS011;64715;44.760;37.678;2024-02-26T00:02:35;2.33;;;0.80;;
74922;SDS011;64715;44.760;37.678;2024-02-26T00:03:38;1.30;;;0.32;;
74922;SDS011;64715;44.760;37.678;2024-02-26T00:04:42;2.75;;;0.70;;
74922;SDS011;64715;44.760;37.678;2024-02-26T00:05:43;1.87;;;0.37;;
74922;SDS011;64715;44.760;37.678;2024-02-26T00:06:44;1.42;;;0.35;;
74922;SDS011;64715;44.760;37.678;2024-02-26T00:07:45;2.03;;;0.43;;
74922;SDS011;64715;44.760;37.678;2024-02-26T00:08:45;2.20;;;0.60;;
74922;SDS011;64715;44.760;37.678;2024-02-26T00:09:47;4.00;;;0.93;;
74922;SDS011;64715;44.760;37.678;2024-02-26T00:10:48;2.78;;;0.75;;
74922;SDS011;64715;44.760;37.678;2024-02-26T00:11:49;2.63;;;0.80;;
74922;SDS011;64715;44.760;37.678;2024-02-26T00:12:50;2.70;;;0.90;;
74922;SDS011;64715;44.760;37.678;2024-02-26T00:13:51;1.58;;;0.43;;
74922;SDS011;64715;44.760;37.678;2024-02-26T00:14:52;2.57;;;0.50;;
74922;SDS011;64715;44.760;37.678;2024-02-26T00:15:54;2.70;;;0.70;;
74922;SDS011;64715;44.760;37.678;2024-02-26T00:16:55;2.20;;;0.50;;
74922;SDS011;64715;44.760;37.678;2024-02-26T00:17:55;2.35;;;0.60;;
74922;SDS011;64715;44.760;37.678;2024-02-26T00:18:56;1.50;;;0.50;;
74922;SDS011;64715;44.760;37.678;2024-02-26T00:19:57;1.63;;;0.40;;
74922;SDS011;64715;44.760;37.678;2024-02-26T00:20:58;1.43;;;0.30;;
74922;SDS011;64715;44.760;37.678;2024-02-26T00:21:59;4.43;;;1.05;;
74922;SDS011;64715;44.760;37.678;2024-02-26T00:23:00;2.85;;;0.95;;
74922;SDS011;64715;44.760;37.678;2024-02-26T00:24:01;1.27;;;0.28;;
74922;SDS011;64715;44.760;37.678;2024-02-26T00:25:02;1.40;;;0.30;;
74922;SDS011;64715;44.760;37.678;2024-02-26T00:26:04;2.55;;;0.60;;
74922;SDS011;64715;44.760;37.678;2024-02-26T00:27:05;1.52;;;0.47;;
74922;SDS011;64715;44.760;37.678;2024-02-26T00:28:06;1.77;;;0.40;;
74922;SDS011;64715;44.760;37.678;2024-02-26T00:29:07;1.85;;;0.38;;
74922;SDS011;64715;44.760;37.678;2024-02-26T00:30:08;1.27;;;0.30;;
74922;SDS011;64715;44.760;37.678;2024-02-26T00:31:10;1.40;;;0.40;;
74922;SDS011;64715;44.760;37.678;2024-02-26T00:32:11;1.37;;;0.30;;
74922;SDS011;64715;44.760;37.678;2024-02-26T00:33:12;2.35;;;0.60;;
74922;SDS011;64715;44.760;37.678;2024-02-26T00:34:14;1.90;;;0.50;;
74922;SDS011;64715;44.760;37.678;2024-02-26T00:35:15;1.10;;;0.22;;
74922;SDS011;64715;44.760;37.678;2024-02-26T00:36:17;2.40;;;0.60;;
74922;SDS011;64715;44.760;37.678;2024-02-26T00:37:19;2.28;;;0.70;;
74922;SDS011;64715;44.760;37.678;2024-02-26T00:38:20;3.90;;;0.60;;
74922;SDS011;64715;44.760;37.678;2024-02-26T00:39:20;3.00;;;0.77;;
74922;SDS011;64715;44.760;37.678;2024-02-26T00:40:21;6.47;;;0.68;;
74922;SDS011;64715;44.760;37.678;2024-02-26T00:41:22;3.03;;;0.85;;
74922;SDS011;64715;44.760;37.678;2024-02-26T00:42:23;3.75;;;1.38;;
74922;SDS011;64715;44.760;37.678;2024-02-26T00:43:24;3.42;;;1.05;;
74922;SDS011;64715;44.760;37.678;2024-02-26T00:44:25;4.40;;;1.20;;
74922;SDS011;64715;44.760;37.678;2024-02-26T00:45:27;1.80;;;0.47;;
74922;SDS011;64715;44.760;37.678;2024-02-26T00:46:28;1.65;;;0.55;;
74922;SDS011;64715;44.760;37.678;2024-02-26T00:47:29;1.85;;;0.57;;
74922;SDS011;64715;44.760;37.678;2024-02-26T00:48:30;2.70;;;0.70;;
74922;SDS011;64715;44.760;37.678;2024-02-26T00:49:30;3.60;;;0.82;;
74922;SDS011;64715;44.760;37.678;2024-02-26T00:50:31;1.33;;;0.30;;
74922;SDS011;64715;44.760;37.678;2024-02-26T00:51:32;1.48;;;0.35;;
74922;SDS011;64715;44.760;37.678;2024-02-26T00:52:34;1.60;;;0.30;;
74922;SDS011;64715;44.760;37.678;2024-02-26T00:53:35;1.60;;;0.47;;
74922;SDS011;64715;44.760;37.678;2024-02-26T00:54:36;1.70;;;0.50;;
74922;SDS011;64715;44.760;37.678;2024-02-26T00:55:37;1.70;;;0.40;;
74922;SDS011;64715;44.760;37.678;2024-02-26T00:56:38;1.67;;;0.30;;
74922;SDS011;64715;44.760;37.678;2024-02-26T00:57:38;1.83;;;0.55;;
74922;SDS011;64715;44.760;37.678;2024-02-26T00:58:41;1.20;;;0.22;;
74922;SDS011;64715;44.760;37.678;2024-02-26T00:59:41;2.08;;;0.73;;
74922;SDS011;64715;44.760;37.678;2024-02-26T01:00:42;2.38;;;0.55;;
74922;SDS011;64715;44.760;37.678;2024-02-26T01:01:43;2.33;;;0.60;;
74922;SDS011;64715;44.760;37.678;2024-02-26T01:02:44;3.38;;;0.80;;
74922;SDS011;64715;44.760;37.678;2024-02-26T01:03:48;0.80;;;0.10;;
74922;SDS011;64715;44.760;37.678;2024-02-26T01:04:49;1.90;;;0.82;;
74922;SDS011;64715;44.760;37.678;2024-02-26T01:05:50;1.83;;;0.55;;
74922;SDS011;64715;44.760;37.678;2024-02-26T01:06:51;1.83;;;0.53;;
74922;SDS011;64715;44.760;37.678;2024-02-26T01:07:51;1.02;;;0.20;;
74922;SDS011;64715;44.760;37.678;2024-02-26T01:08:52;1.77;;;0.43;;
74922;SDS011;64715;44.760;37.678;2024-02-26T01:09:53;1.90;;;0.65;;
74922;SDS011;64715;44.760;37.678;2024-02-26T01:10:54;2.00;;;0.40;;
74922;SDS011;64715;44.760;37.678;2024-02-26T01:11:55;1.58;;;0.52;;
74922;SDS011;64715;44.760;37.678;2024-02-26T01:12:56;2.00;;;0.50;;
74922;SDS011;64715;44.760;37.678;2024-02-26T01:13:57;13.68;;;1.27;;
74922;SDS011;64715;44.760;37.678;2024-02-26T01:14:58;1.77;;;0.40;;
74922;SDS011;64715;44.760;37.678;2024-02-26T01:15:59;2.55;;;0.57;;
74922;SDS011;64715;44.760;37.678;2024-02-26T01:17:01;2.20;;;0.70;;
74922;SDS011;64715;44.760;37.678;2024-02-26T01:18:03;1.13;;;0.20;;
74922;SDS011;64715;44.760;37.678;2024-02-26T01:19:04;3.38;;;0.93;;
74922;SDS011;64715;44.760;37.678;2024-02-26T01:20:05;1.30;;;0.40;;
74922;SDS011;64715;44.760;37.678;2024-02-26T01:21:06;2.45;;;0.73;;
74922;SDS011;64715;44.760;37.678;2024-02-26T01:22:09;1.00;;;0.20;;
74922;SDS011;64715;44.760;37.678;2024-02-26T01:23:10;1.05;;;0.20;;
74922;SDS011;64715;44.760;37.678;2024-02-26T01:24:11;1.88;;;0.68;;
74922;SDS011;64715;44.760;37.678;2024-02-26T01:25:12;1.30;;;0.30;;
74922;SDS011;64715;44.760;37.678;2024-02-26T01:26:13;3.70;;;0.50;;
74922;SDS011;64715;44.760;37.678;2024-02-26T01:27:14;0.80;;;0.10;;
74922;SDS011;64715;44.760;37.678;2024-02-26T01:28:16;1.35;;;0.43;;
74922;SDS011;64715;44.760;37.678;2024-02-26T01:29:16;1.70;;;0.45;;
74922;SDS011;64715;44.760;37.678;2024-02-26T01:30:17;1.30;;;0.30;;
74922;SDS011;64715;44.760;37.678;2024-02-26T01:31:18;3.10;;;0.47;;
74922;SDS011;64715;44.760;37.678;2024-02-26T01:32:19;2.13;;;0.38;;
74922;SDS011;64715;44.760;37.678;2024-02-26T01:33:20;1.52;;;0.52;;
74922;SDS011;64715;44.760;37.678;2024-02-26T01:34:21;1.75;;;0.43;;
74922;SDS011;64715;44.760;37.678;2024-02-26T01:35:22;0.90;;;0.20;;
74922;SDS011;64715;44.760;37.678;2024-02-26T01:36:23;2.35;;;0.75;;
74922;SDS011;64715;44.760;37.678;2024-02-26T01:37:26;1.20;;;0.28;;
74922;SDS011;64715;44.760;37.678;2024-02-26T01:38:30;2.33;;;0.40;;
74922;SDS011;64715;44.760;37.678;2024-02-26T01:39:30;1.73;;;0.35;;
74922;SDS011;64715;44.760;37.678;2024-02-26T01:40:31;1.30;;;0.30;;
74922;SDS011;64715;44.760;37.678;2024-02-26T01:41:32;0.93;;;0.20;;
74922;SDS011;64715;44.760;37.678;2024-02-26T01:42:33;1.55;;;0.28;;
74922;SDS011;64715;44.760;37.678;2024-02-26T01:43:34;1.90;;;0.57;;
74922;SDS011;64715;44.760;37.678;2024-02-26T01:44:35;1.48;;;0.30;;
74922;SDS011;64715;44.760;37.678;2024-02-26T01:45:38;1.60;;;0.43;;
74922;SDS011;64715;44.760;37.678;2024-02-26T01:46:39;1.38;;;0.30;;
74922;SDS011;64715;44.760;37.678;2024-02-26T01:47:40;2.00;;;0.22;;
74922;SDS011;64715;44.760;37.678;2024-02-26T01:48:42;3.95;;;0.70;;
74922;SDS011;64715;44.760;37.678;2024-02-26T01:49:43;1.58;;;0.47;;
74922;SDS011;64715;44.760;37.678;2024-02-26T01:50:44;2.20;;;0.57;;
74922;SDS011;64715;44.760;37.678;2024-02-26T01:51:45;2.08;;;0.60;;
74922;SDS011;64715;44.760;37.678;2024-02-26T01:52:46;1.13;;;0.20;;
74922;SDS011;64715;44.760;37.678;2024-02-26T01:53:49;1.90;;;0.43;;
74922;SDS011;64715;44.760;37.678;2024-02-26T01:54:50;1.48;;;0.43;;
74922;SDS011;64715;44.760;37.678;2024-02-26T01:55:51;2.38;;;1.08;;
74922;SDS011;64715;44.760;37.678;2024-02-26T01:56:52;1.52;;;0.45;;
74922;SDS011;64715;44.760;37.678;2024-02-26T01:57:53;2.25;;;0.77;;
74922;SDS011;64715;44.760;37.678;2024-02-26T01:58:54;1.30;;;0.43;;
74922;SDS011;64715;44.760;37.678;2024-02-26T01:59:55;1.85;;;0.75;;
74922;SDS011;64715;44.760;37.678;2024-02-26T02:00:57;5.15;;;0.68;;
74922;SDS011;64715;44.760;37.678;2024-02-26T02:01:59;1.60;;;0.75;;
74922;SDS011;64715;44.760;37.678;2024-02-26T02:03:03;3.13;;;1.10;;
74922;SDS011;64715;44.760;37.678;2024-02-26T02:04:05;1.60;;;0.45;;
74922;SDS011;64715;44.760;37.678;2024-02-26T02:05:06;1.73;;;0.40;;
74922;SDS011;64715;44.760;37.678;2024-02-26T02:06:08;1.70;;;0.47;;
74922;SDS011;64715;44.760;37.678;2024-02-26T02:07:09;1.27;;;0.30;;
74922;SDS011;64715;44.760;37.678;2024-02-26T02:08:10;1.38;;;0.30;;
74922;SDS011;64715;44.760;37.678;2024-02-26T02:09:12;9.45;;;2.05;;
74922;SDS011;64715;44.760;37.678;2024-02-26T02:10:13;1.67;;;0.60;;
74922;SDS011;64715;44.760;37.678;2024-02-26T02:11:14;1.77;;;0.57;;
74922;SDS011;64715;44.760;37.678;2024-02-26T02:12:16;1.58;;;0.38;;
74922;SDS011;64715;44.760;37.678;2024-02-26T02:13:18;2.58;;;0.77;;
74922;SDS011;64715;44.760;37.678;2024-02-26T02:14:19;1.67;;;0.50;;
74922;SDS011;64715;44.760;37.678;2024-02-26T02:15:20;2.22;;;0.82;;
74922;SDS011;64715;44.760;37.678;2024-02-26T02:16:22;3.70;;;0.80;;
74922;SDS011;64715;44.760;37.678;2024-02-26T02:17:22;2.33;;;0.80;;
74922;SDS011;64715;44.760;37.678;2024-02-26T02:18:23;2.33;;;0.90;;
74922;SDS011;64715;44.760;37.678;2024-02-26T02:19:24;2.03;;;0.73;;
74922;SDS011;64715;44.760;37.678;2024-02-26T02:20:35;1.88;;;0.63;;
74922;SDS011;64715;44.760;37.678;2024-02-26T02:21:36;4.07;;;1.80;;
74922;SDS011;64715;44.760;37.678;2024-02-26T02:22:37;10.93;;;2.23;;
74922;SDS011;64715;44.760;37.678;2024-02-26T02:23:38;3.22;;;1.23;;
74922;SDS011;64715;44.760;37.678;2024-02-26T02:24:39;2.65;;;0.80;;
74922;SDS011;64715;44.760;37.678;2024-02-26T02:25:40;25.05;;;2.15;;
74922;SDS011;64715;44.760;37.678;2024-02-26T02:26:41;1.77;;;0.47;;
74922;SDS011;64715;44.760;37.678;2024-02-26T02:27:43;2.63;;;0.82;;
74922;SDS011;64715;44.760;37.678;2024-02-26T02:28:44;1.77;;;0.50;;
74922;SDS011;64715;44.760;37.678;2024-02-26T02:29:46;1.73;;;0.65;;
74922;SDS011;64715;44.760;37.678;2024-02-26T02:30:48;1.25;;;0.30;;
74922;SDS011;64715;44.760;37.678;2024-02-26T02:31:49;1.13;;;0.30;;
74922;SDS011;64715;44.760;37.678;2024-02-26T02:32:50;3.97;;;1.45;;
74922;SDS011;64715;44.760;37.678;2024-02-26T02:33:52;1.73;;;0.43;;
74922;SDS011;64715;44.760;37.678;2024-02-26T02:34:53;2.88;;;1.20;;
74922;SDS011;64715;44.760;37.678;2024-02-26T02:35:54;2.45;;;0.70;;
74922;SDS011;64715;44.760;37.678;2024-02-26T02:36:55;1.83;;;0.35;;
74922;SDS011;64715;44.760;37.678;2024-02-26T02:37:56;1.65;;;0.40;;
74922;SDS011;64715;44.760;37.678;2024-02-26T02:38:58;1.17;;;0.20;;
74922;SDS011;64715;44.760;37.678;2024-02-26T02:39:59;1.35;;;0.47;;
74922;SDS011;64715;44.760;37.678;2024-02-26T02:41:00;3.20;;;0.93;;
74922;SDS011;64715;44.760;37.678;2024-02-26T02:42:01;2.30;;;0.43;;
74922;SDS011;64715;44.760;37.678;2024-02-26T02:43:02;1.65;;;0.47;;
74922;SDS011;64715;44.760;37.678;2024-02-26T02:44:03;1.52;;;0.40;;
74922;SDS011;64715;44.760;37.678;2024-02-26T02:45:04;2.93;;;1.10;;
74922;SDS011;64715;44.760;37.678;2024-02-26T02:46:05;2.28;;;0.38;;
74922;SDS011;64715;44.760;37.678;2024-02-26T02:47:06;2.03;;;0.40;;
74922;SDS011;64715;44.760;37.678;2024-02-26T02:48:07;2.15;;;0.60;;
74922;SDS011;64715;44.760;37.678;2024-02-26T02:49:11;3.17;;;0.95;;
74922;SDS011;64715;44.760;37.678;2024-02-26T02:50:12;1.50;;;0.43;;
74922;SDS011;64715;44.760;37.678;2024-02-26T02:51:13;4.03;;;0.98;;
74922;SDS011;64715;44.760;37.678;2024-02-26T02:52:14;1.55;;;0.35;;
74922;SDS011;64715;44.760;37.678;2024-02-26T02:53:15;1.90;;;0.60;;
74922;SDS011;64715;44.760;37.678;2024-02-26T02:54:16;5.20;;;1.27;;
74922;SDS011;64715;44.760;37.678;2024-02-26T02:55:17;1.15;;;0.20;;
74922;SDS011;64715;44.760;37.678;2024-02-26T02:56:18;2.17;;;0.63;;
74922;SDS011;64715;44.760;37.678;2024-02-26T02:57:19;2.90;;;1.75;;
74922;SDS011;64715;44.760;37.678;2024-02-26T02:58:20;1.98;;;0.50;;
74922;SDS011;64715;44.760;37.678;2024-02-26T02:59:21;5.88;;;0.50;;
74922;SDS011;64715;44.760;37.678;2024-02-26T03:00:22;2.30;;;0.75;;
74922;SDS011;64715;44.760;37.678;2024-02-26T03:01:23;1.42;;;0.40;;
74922;SDS011;64715;44.760;37.678;2024-02-26T03:02:24;3.53;;;1.17;;
74922;SDS011;64715;44.760;37.678;2024-02-26T03:03:25;5.93;;;1.27;;
74922;SDS011;64715;44.760;37.678;2024-02-26T03:04:26;1.80;;;0.50;;
74922;SDS011;64715;44.760;37.678;2024-02-26T03:05:27;2.30;;;0.70;;
74922;SDS011;64715;44.760;37.678;2024-02-26T03:06:28;4.23;;;1.00;;
74922;SDS011;64715;44.760;37.678;2024-02-26T03:07:29;6.93;;;1.58;;
74922;SDS011;64715;44.760;37.678;2024-02-26T03:08:30;1.35;;;0.32;;
74922;SDS011;64715;44.760;37.678;2024-02-26T03:09:31;1.90;;;0.50;;
74922;SDS011;64715;44.760;37.678;2024-02-26T03:10:32;1.88;;;0.47;;
74922;SDS011;64715;44.760;37.678;2024-02-26T03:11:33;1.58;;;0.45;;
74922;SDS011;64715;44.760;37.678;2024-02-26T03:12:34;1.40;;;0.30;;
74922;SDS011;64715;44.760;37.678;2024-02-26T03:13:35;2.67;;;0.80;;
74922;SDS011;64715;44.760;37.678;2024-02-26T03:14:36;5.28;;;1.33;;
74922;SDS011;64715;44.760;37.678;2024-02-26T03:15:37;19.38;;;0.75;;
74922;SDS011;64715;44.760;37.678;2024-02-26T03:16:38;1.75;;;0.47;;
74922;SDS011;64715;44.760;37.678;2024-02-26T03:17:39;1.23;;;0.28;;
74922;SDS011;64715;44.760;37.678;2024-02-26T03:18:40;6.63;;;2.75;;
74922;SDS011;64715;44.760;37.678;2024-02-26T03:19:41;1.27;;;0.30;;
74922;SDS011;64715;44.760;37.678;2024-02-26T03:20:46;1.85;;;0.65;;
74922;SDS011;64715;44.760;37.678;2024-02-26T03:21:47;1.20;;;0.30;;
74922;SDS011;64715;44.760;37.678;2024-02-26T03:22:48;1.83;;;0.57;;
74922;SDS011;64715;44.760;37.678;2024-02-26T03:23:49;1.53;;;0.40;;
74922;SDS011;64715;44.760;37.678;2024-02-26T03:24:50;2.20;;;0.50;;
74922;SDS011;64715;44.760;37.678;2024-02-26T03:25:51;1.70;;;0.60;;
74922;SDS011;64715;44.760;37.678;2024-02-26T03:26:52;1.40;;;0.30;;
74922;SDS011;64715;44.760;37.678;2024-02-26T03:27:53;1.25;;;0.25;;
74922;SDS011;64715;44.760;37.678;2024-02-26T03:28:54;1.83;;;0.52;;
74922;SDS011;64715;44.760;37.678;2024-02-26T03:29:55;2.60;;;1.03;;
74922;SDS011;64715;44.760;37.678;2024-02-26T03:30:57;1.17;;;0.25;;
74922;SDS011;64715;44.760;37.678;2024-02-26T03:31:58;1.75;;;0.28;;
74922;SDS011;64715;44.760;37.678;2024-02-26T03:32:59;2.10;;;0.55;;
74922;SDS011;64715;44.760;37.678;2024-02-26T03:34:00;1.75;;;0.43;;
74922;SDS011;64715;44.760;37.678;2024-02-26T03:35:00;2.88;;;0.60;;
74922;SDS011;64715;44.760;37.678;2024-02-26T03:36:02;4.72;;;0.63;;
74922;SDS011;64715;44.760;37.678;2024-02-26T03:37:04;1.90;;;0.50;;
74922;SDS011;64715;44.760;37.678;2024-02-26T03:38:05;2.00;;;0.55;;
74922;SDS011;64715;44.760;37.678;2024-02-26T03:39:06;7.20;;;1.05;;
74922;SDS011;64715;44.760;37.678;2024-02-26T03:40:08;3.00;;;0.45;;
74922;SDS011;64715;44.760;37.678;2024-02-26T03:41:09;2.38;;;0.77;;
74922;SDS011;64715;44.760;37.678;2024-02-26T03:42:10;2.92;;;1.05;;
74922;SDS011;64715;44.760;37.678;2024-02-26T03:43:11;2.05;;;0.40;;
74922;SDS011;64715;44.760;37.678;2024-02-26T03:44:13;2.35;;;0.63;;
74922;SDS011;64715;44.760;37.678;2024-02-26T03:45:14;6.10;;;0.70;;
74922;SDS011;64715;44.760;37.678;2024-02-26T03:46:15;1.30;;;0.32;;
74922;SDS011;64715;44.760;37.678;2024-02-26T03:47:16;2.72;;;0.75;;
74922;SDS011;64715;44.760;37.678;2024-02-26T03:48:17;1.00;;;0.28;;
74922;SDS011;64715;44.760;37.678;2024-02-26T03:49:17;1.10;;;0.20;;
74922;SDS011;64715;44.760;37.678;2024-02-26T03:50:18;2.47;;;0.80;;
74922;SDS011;64715;44.760;37.678;2024-02-26T03:51:19;14.45;;;2.63;;
74922;SDS011;64715;44.760;37.678;2024-02-26T03:52:20;8.88;;;1.50;;
74922;SDS011;64715;44.760;37.678;2024-02-26T03:53:21;2.05;;;0.70;;
74922;SDS011;64715;44.760;37.678;2024-02-26T03:54:22;2.22;;;0.52;;
74922;SDS011;64715;44.760;37.678;2024-02-26T03:55:23;1.35;;;0.40;;
74922;SDS011;64715;44.760;37.678;2024-02-26T03:56:25;5.20;;;2.03;;
74922;SDS011;64715;44.760;37.678;2024-02-26T03:57:27;1.77;;;0.32;;
74922;SDS011;64715;44.760;37.678;2024-02-26T03:58:28;1.95;;;0.40;;
74922;SDS011;64715;44.760;37.678;2024-02-26T03:59:29;1.65;;;0.50;;
74922;SDS011;64715;44.760;37.678;2024-02-26T04:00:30;1.60;;;0.30;;
74922;SDS011;64715;44.760;37.678;2024-02-26T04:01:31;1.17;;;0.30;;
74922;SDS011;64715;44.760;37.678;2024-02-26T04:02:32;4.00;;;0.98;;
74922;SDS011;64715;44.760;37.678;2024-02-26T04:03:33;3.60;;;0.73;;
74922;SDS011;64715;44.760;37.678;2024-02-26T04:04:34;1.73;;;0.45;;
74922;SDS011;64715;44.760;37.678;2024-02-26T04:05:35;4.85;;;2.58;;
74922;SDS011;64715;44.760;37.678;2024-02-26T04:06:36;2.85;;;1.13;;
74922;SDS011;64715;44.760;37.678;2024-02-26T04:07:37;31.98;;;3.92;;
74922;SDS011;64715;44.760;37.678;2024-02-26T04:08:39;17.50;;;2.65;;
74922;SDS011;64715;44.760;37.678;2024-02-26T04:09:40;3.78;;;1.42;;
74922;SDS011;64715;44.760;37.678;2024-02-26T04:10:40;1.90;;;0.40;;
74922;SDS011;64715;44.760;37.678;2024-02-26T04:11:42;4.80;;;1.20;;
74922;SDS011;64715;44.760;37.678;2024-02-26T04:12:43;3.83;;;0.50;;
74922;SDS011;64715;44.760;37.678;2024-02-26T04:13:44;1.77;;;0.50;;
74922;SDS011;64715;44.760;37.678;2024-02-26T04:14:51;5.18;;;0.82;;
74922;SDS011;64715;44.760;37.678;2024-02-26T04:15:52;1.53;;;0.50;;
74922;SDS011;64715;44.760;37.678;2024-02-26T04:16:53;1.48;;;0.32;;
74922;SDS011;64715;44.760;37.678;2024-02-26T04:17:54;3.72;;;1.10;;
74922;SDS011;64715;44.760;37.678;2024-02-26T04:18:55;2.03;;;0.77;;
74922;SDS011;64715;44.760;37.678;2024-02-26T04:19:56;2.38;;;0.50;;
74922;SDS011;64715;44.760;37.678;2024-02-26T04:20:57;12.90;;;3.65;;
74922;SDS011;64715;44.760;37.678;2024-02-26T04:21:59;48.88;;;12.30;;
74922;SDS011;64715;44.760;37.678;2024-02-26T04:23:00;71.13;;;11.65;;
74922;SDS011;64715;44.760;37.678;2024-02-26T04:24:01;119.10;;;20.13;;
74922;SDS011;64715;44.760;37.678;2024-02-26T04:25:02;209.88;;;28.88;;
74922;SDS011;64715;44.760;37.678;2024-02-26T04:26:03;180.48;;;35.78;;
74922;SDS011;64715;44.760;37.678;2024-02-26T04:27:05;88.45;;;16.73;;
74922;SDS011;64715;44.760;37.678;2024-02-26T04:28:05;8.68;;;3.63;;
74922;SDS011;64715;44.760;37.678;2024-02-26T04:29:06;57.07;;;9.60;;
74922;SDS011;64715;44.760;37.678;2024-02-26T04:30:07;38.78;;;5.93;;
74922;SDS011;64715;44.760;37.678;2024-02-26T04:31:09;4.10;;;1.40;;
74922;SDS011;64715;44.760;37.678;2024-02-26T04:32:10;18.42;;;0.82;;
74922;SDS011;64715;44.760;37.678;2024-02-26T04:33:11;4.00;;;1.17;;
74922;SDS011;64715;44.760;37.678;2024-02-26T04:34:11;4.53;;;1.30;;
74922;SDS011;64715;44.760;37.678;2024-02-26T04:35:12;3.22;;;0.73;;
74922;SDS011;64715;44.760;37.678;2024-02-26T04:36:14;2.58;;;0.45;;
74922;SDS011;64715;44.760;37.678;2024-02-26T04:37:18;2.83;;;0.57;;
74922;SDS011;64715;44.760;37.678;2024-02-26T04:38:19;2.08;;;0.57;;
74922;SDS011;64715;44.760;37.678;2024-02-26T04:39:20;2.28;;;0.50;;
74922;SDS011;64715;44.760;37.678;2024-02-26T04:40:21;2.60;;;0.60;;
74922;SDS011;64715;44.760;37.678;2024-02-26T04:41:22;5.70;;;0.90;;
74922;SDS011;64715;44.760;37.678;2024-02-26T04:42:23;2.28;;;0.65;;
74922;SDS011;64715;44.760;37.678;2024-02-26T04:43:24;3.75;;;1.08;;
74922;SDS011;64715;44.760;37.678;2024-02-26T04:44:25;3.85;;;1.20;;
74922;SDS011;64715;44.760;37.678;2024-02-26T04:45:25;2.42;;;0.70;;
74922;SDS011;64715;44.760;37.678;2024-02-26T04:46:26;3.00;;;0.65;;
74922;SDS011;64715;44.760;37.678;2024-02-26T04:47:28;3.88;;;0.90;;
74922;SDS011;64715;44.760;37.678;2024-02-26T04:48:30;2.65;;;0.52;;
74922;SDS011;64715;44.760;37.678;2024-02-26T04:49:31;2.20;;;0.57;;
74922;SDS011;64715;44.760;37.678;2024-02-26T04:50:32;3.22;;;0.80;;
74922;SDS011;64715;44.760;37.678;2024-02-26T04:51:33;1.85;;;0.60;;
74922;SDS011;64715;44.760;37.678;2024-02-26T04:52:34;2.83;;;1.20;;
74922;SDS011;64715;44.760;37.678;2024-02-26T04:53:35;7.95;;;0.88;;
74922;SDS011;64715;44.760;37.678;2024-02-26T04:54:36;1.83;;;0.63;;
74922;SDS011;64715;44.760;37.678;2024-02-26T04:55:37;2.38;;;0.63;;
74922;SDS011;64715;44.760;37.678;2024-02-26T04:56:38;3.72;;;0.93;;
74922;SDS011;64715;44.760;37.678;2024-02-26T04:57:39;3.38;;;0.90;;
74922;SDS011;64715;44.760;37.678;2024-02-26T04:58:40;2.03;;;0.50;;
74922;SDS011;64715;44.760;37.678;2024-02-26T04:59:41;1.98;;;0.50;;
74922;SDS011;64715;44.760;37.678;2024-02-26T05:00:43;2.00;;;0.43;;
74922;SDS011;64715;44.760;37.678;2024-02-26T05:01:44;1.95;;;0.45;;
74922;SDS011;64715;44.760;37.678;2024-02-26T05:02:45;3.15;;;0.80;;
74922;SDS011;64715;44.760;37.678;2024-02-26T05:03:46;3.95;;;1.00;;
74922;SDS011;64715;44.760;37.678;2024-02-26T05:04:47;6.70;;;1.73;;
74922;SDS011;64715;44.760;37.678;2024-02-26T05:05:48;3.33;;;1.17;;
74922;SDS011;64715;44.760;37.678;2024-02-26T05:06:49;1.98;;;0.52;;
74922;SDS011;64715;44.760;37.678;2024-02-26T05:07:50;3.35;;;0.73;;
74922;SDS011;64715;44.760;37.678;2024-02-26T05:08:51;2.50;;;0.50;;
74922;SDS011;64715;44.760;37.678;2024-02-26T05:09:52;1.70;;;0.47;;
74922;SDS011;64715;44.760;37.678;2024-02-26T05:10:53;2.58;;;1.15;;
74922;SDS011;64715;44.760;37.678;2024-02-26T05:11:54;2.23;;;0.53;;
74922;SDS011;64715;44.760;37.678;2024-02-26T05:12:55;2.75;;;0.68;;
74922;SDS011;64715;44.760;37.678;2024-02-26T05:13:56;3.05;;;0.82;;
74922;SDS011;64715;44.760;37.678;2024-02-26T05:14:57;2.80;;;0.80;;
74922;SDS011;64715;44.760;37.678;2024-02-26T05:15:59;2.67;;;0.60;;
74922;SDS011;64715;44.760;37.678;2024-02-26T05:17:00;2.80;;;0.80;;
74922;SDS011;64715;44.760;37.678;2024-02-26T05:18:02;4.10;;;0.80;;
74922;SDS011;64715;44.760;37.678;2024-02-26T05:19:03;2.90;;;0.77;;
74922;SDS011;64715;44.760;37.678;2024-02-26T05:20:04;3.27;;;0.90;;
74922;SDS011;64715;44.760;37.678;2024-02-26T05:21:08;4.15;;;0.73;;
74922;SDS011;64715;44.760;37.678;2024-02-26T05:22:09;2.92;;;0.85;;
74922;SDS011;64715;44.760;37.678;2024-02-26T05:23:10;4.38;;;0.95;;
74922;SDS011;64715;44.760;37.678;2024-02-26T05:24:10;4.00;;;1.17;;
74922;SDS011;64715;44.760;37.678;2024-02-26T05:25:11;4.37;;;1.10;;
74922;SDS011;64715;44.760;37.678;2024-02-26T05:26:21;3.78;;;1.25;;
74922;SDS011;64715;44.760;37.678;2024-02-26T05:27:23;3.50;;;0.85;;
74922;SDS011;64715;44.760;37.678;2024-02-26T05:28:24;3.28;;;0.85;;
74922;SDS011;64715;44.760;37.678;2024-02-26T05:29:25;3.88;;;1.25;;
74922;SDS011;64715;44.760;37.678;2024-02-26T05:30:26;3.03;;;0.80;;
74922;SDS011;64715;44.760;37.678;2024-02-26T05:31:28;4.00;;;1.23;;
74922;SDS011;64715;44.760;37.678;2024-02-26T05:32:29;4.20;;;1.05;;
74922;SDS011;64715;44.760;37.678;2024-02-26T05:33:30;3.77;;;0.90;;
74922;SDS011;64715;44.760;37.678;2024-02-26T05:34:31;3.55;;;0.82;;
74922;SDS011;64715;44.760;37.678;2024-02-26T05:35:33;3.38;;;1.00;;
74922;SDS011;64715;44.760;37.678;2024-02-26T05:36:34;3.45;;;1.05;;
74922;SDS011;64715;44.760;37.678;2024-02-26T05:37:35;4.03;;;0.85;;
74922;SDS011;64715;44.760;37.678;2024-02-26T05:38:36;6.57;;;1.23;;
74922;SDS011;64715;44.760;37.678;2024-02-26T05:39:37;3.53;;;1.17;;
74922;SDS011;64715;44.760;37.678;2024-02-26T05:40:39;5.77;;;1.20;;
74922;SDS011;64715;44.760;37.678;2024-02-26T05:41:40;3.72;;;0.82;;
74922;SDS011;64715;44.760;37.678;2024-02-26T05:42:43;3.97;;;0.95;;
74922;SDS011;64715;44.760;37.678;2024-02-26T05:43:47;4.30;;;1.60;;
74922;SDS011;64715;44.760;37.678;2024-02-26T05:44:48;3.72;;;1.00;;
74922;SDS011;64715;44.760;37.678;2024-02-26T05:45:49;3.75;;;0.90;;
74922;SDS011;64715;44.760;37.678;2024-02-26T05:46:49;4.67;;;0.90;;
74922;SDS011;64715;44.760;37.678;2024-02-26T05:47:50;4.32;;;1.33;;
74922;SDS011;64715;44.760;37.678;2024-02-26T05:48:52;5.40;;;1.38;;
74922;SDS011;64715;44.760;37.678;2024-02-26T05:49:53;3.45;;;0.90;;
74922;SDS011;64715;44.760;37.678;2024-02-26T05:50:55;4.03;;;1.00;;
74922;SDS011;64715;44.760;37.678;2024-02-26T05:51:56;3.08;;;1.00;;
74922;SDS011;64715;44.760;37.678;2024-02-26T05:52:57;3.63;;;0.90;;
74922;SDS011;64715;44.760;37.678;2024-02-26T05:53:58;12.60;;;1.70;;
74922;SDS011;64715;44.760;37.678;2024-02-26T05:54:59;6.00;;;1.52;;
74922;SDS011;64715;44.760;37.678;2024-02-26T05:56:00;4.35;;;1.70;;
74922;SDS011;64715;44.760;37.678;2024-02-26T05:57:01;5.72;;;1.23;;
74922;SDS011;64715;44.760;37.678;2024-02-26T05:58:02;5.57;;;1.77;;
74922;SDS011;64715;44.760;37.678;2024-02-26T05:59:03;5.20;;;1.47;;
74922;SDS011;64715;44.760;37.678;2024-02-26T06:00:04;9.23;;;1.70;;
74922;SDS011;64715;44.760;37.678;2024-02-26T06:01:12;3.95;;;0.98;;
74922;SDS011;64715;44.760;37.678;2024-02-26T06:02:13;10.13;;;1.65;;
74922;SDS011;64715;44.760;37.678;2024-02-26T06:03:14;5.90;;;1.95;;